Time;durP1;ratioP1;P1;durP2;ratioP2;P2;SDS_P1;SDS_P2;PMS_P1;PMS_P2;Temp;Humidity;BMP_temperature;BMP_pressure;BME280_temperature;BME280_humidity;BME280_pressure;Samples;Min_cycle;Max_cycle;Signal;HPM_P1;HPM_P2
2023/05/10 00:01:15;;;;;;;13.02;6.22;;;14.80;99.90;;;13.90;100.00;96712.31;6152371;23;20454;-76
2023/05/10 00:03:41;;;;;;;8.90;4.93;;;14.70;99.90;;;13.86;100.00;96713.16;6152449;23;20838;-75
2023/05/10 00:06:07;;;;;;;11.05;4.38;;;14.50;99.90;;;13.75;100.00;96712.50;6152612;23;20438;-76
2023/05/10 00:08:33;;;;;;;7.65;3.78;;;14.50;99.90;;;13.69;100.00;96726.13;6153013;23;20876;-76
2023/05/10 00:11:00;;;;;;;6.45;3.40;;;14.50;99.90;;;13.62;100.00;96728.38;6152365;23;20370;-76
2023/05/10 00:13:26;;;;;;;6.90;3.57;;;14.50;99.90;;;13.75;100.00;96727.69;6151144;23;20374;-76
2023/05/10 00:15:52;;;;;;;7.22;3.10;;;14.50;99.90;;;13.68;100.00;96722.69;6154069;23;20382;-76
2023/05/10 00:18:19;;;;;;;6.70;2.80;;;14.50;99.90;;;13.65;100.00;96717.97;6154058;23;20386;-76
2023/05/10 00:20:45;;;;;;;6.72;2.90;;;14.40;99.90;;;13.59;100.00;96716.44;6152569;23;20437;-76
2023/05/10 00:23:12;;;;;;;4.87;2.53;;;14.40;99.90;;;13.53;100.00;96707.72;6154537;23;20371;-75
2023/05/10 00:25:37;;;;;;;9.15;2.80;;;14.40;99.90;;;13.43;100.00;96709.75;6152929;23;20370;-76
2023/05/10 00:28:05;;;;;;;3.10;2.30;;;14.30;99.90;;;13.40;100.00;96708.44;6152533;23;20437;-77
2023/05/10 00:30:31;;;;;;;5.78;2.30;;;14.20;99.90;;;13.45;100.00;96707.59;6154002;23;20367;-76
2023/05/10 00:32:56;;;;;;;6.20;2.33;;;14.20;99.90;;;13.33;100.00;96708.00;6154738;23;20695;-77
2023/05/10 00:35:23;;;;;;;7.97;2.40;;;14.20;99.90;;;13.32;100.00;96711.72;6154809;23;20377;-77
2023/05/10 00:37:48;;;;;;;3.75;2.10;;;14.20;99.90;;;13.33;100.00;96713.31;6154343;23;20366;-77
2023/05/10 00:40:14;;;;;;;6.88;2.38;;;14.20;99.90;;;13.29;100.00;96708.88;6153630;23;20450;-78
2023/05/10 00:42:40;;;;;;;2.92;1.88;;;14.10;99.90;;;13.26;100.00;96709.41;6154342;23;20437;-77
2023/05/10 00:45:09;;;;;;;5.57;1.85;;;14.10;99.90;;;13.27;100.00;96717.13;6154315;23;20375;-77
2023/05/10 00:47:35;;;;;;;8.70;2.03;;;14.00;99.90;;;13.18;100.00;96724.91;6155593;23;20690;-77
2023/05/10 00:50:01;;;;;;;4.35;1.98;;;14.10;99.90;;;13.26;100.00;96725.38;6155502;23;20415;-75
2023/05/10 00:52:28;;;;;;;3.97;2.00;;;14.00;99.90;;;13.17;100.00;96733.16;6155901;23;20379;-77
2023/05/10 00:54:55;;;;;;;4.83;2.00;;;14.10;99.90;;;13.17;100.00;96738.47;6154993;23;20367;-77
2023/05/10 00:57:21;;;;;;;2.00;1.67;;;14.00;99.90;;;13.24;100.00;96730.16;6154880;23;20368;-77
2023/05/10 00:59:48;;;;;;;5.47;2.00;;;14.10;99.90;;;13.22;100.00;96740.31;6152403;23;20394;-77
2023/05/10 01:02:15;;;;;;;3.92;1.92;;;14.10;99.90;;;13.23;100.00;96737.34;6154088;23;20374;-77
2023/05/10 01:04:42;;;;;;;6.80;2.00;;;14.10;99.90;;;13.30;100.00;96737.81;6153891;23;20379;-77
2023/05/10 01:07:08;;;;;;;5.82;2.10;;;14.10;99.90;;;13.21;100.00;96741.38;6154068;23;20433;-77
2023/05/10 01:09:34;;;;;;;4.10;2.10;;;14.10;99.90;;;13.28;100.00;96744.50;6153854;23;20360;-77
2023/05/10 01:12:01;;;;;;;8.43;2.00;;;14.10;99.90;;;13.21;100.00;96749.34;6153818;23;20967;-77
2023/05/10 01:14:28;;;;;;;3.53;1.88;;;14.00;99.90;;;13.23;100.00;96736.59;6154299;23;20437;-77
2023/05/10 01:16:54;;;;;;;3.25;1.80;;;14.00;99.90;;;13.17;100.00;96741.94;6153977;23;20378;-77
2023/05/10 01:19:25;;;;;;;3.25;1.90;;;14.00;99.90;;;13.11;100.00;96735.06;6153609;23;20405;-77
2023/05/10 01:22:01;;;;;;;3.75;1.90;;;13.90;99.90;;;13.10;100.00;96738.78;6153762;23;20399;-77
2023/05/10 01:24:54;;;;;;;3.53;2.10;;;13.90;99.90;;;13.10;100.00;96740.66;6153863;23;20379;-76
2023/05/10 01:27:59;;;;;;;5.40;2.47;;;13.90;99.90;;;13.12;100.00;96751.81;6153219;23;20363;-77
2023/05/10 01:31:17;;;;;;;4.50;2.50;;;13.90;99.90;;;13.06;100.00;96756.38;6154032;23;20367;-76
2023/05/10 01:33:51;;;;;;;4.47;2.20;;;13.90;99.90;;;12.98;100.00;96756.22;6154356;23;20367;-75
2023/05/10 01:36:27;;;;;;;5.50;2.53;;;13.80;99.90;;;13.03;100.00;96756.16;6154399;23;20833;-76
2023/05/10 01:39:01;;;;;;;5.53;2.60;;;13.80;99.90;;;12.92;100.00;96760.00;6153754;23;20383;-77
2023/05/10 01:41:41;;;;;;;4.28;2.30;;;13.70;99.90;;;12.85;100.00;96759.53;6153386;23;20362;-77
2023/05/10 01:44:17;;;;;;;5.72;2.47;;;13.70;99.90;;;12.86;100.00;96761.88;6153032;23;20362;-77
2023/05/10 01:46:46;;;;;;;5.90;2.70;;;13.70;99.90;;;12.91;100.00;96767.16;6153541;23;20370;-77
2023/05/10 01:49:23;;;;;;;6.90;2.40;;;13.70;99.90;;;12.82;100.00;96774.16;6153754;23;20843;-77
2023/05/10 01:51:54;;;;;;;7.38;2.40;;;13.70;99.90;;;12.88;100.00;96775.69;6153342;23;20363;-77
2023/05/10 01:54:23;;;;;;;8.07;2.85;;;13.70;99.90;;;12.84;100.00;96769.38;6153590;23;20861;-77
2023/05/10 01:56:58;;;;;;;11.85;3.08;;;13.70;99.90;;;12.82;100.00;96771.50;6152954;23;20370;-77
2023/05/10 01:59:38;;;;;;;7.97;2.75;;;13.70;99.90;;;12.78;100.00;96770.44;6153189;23;20714;-75
2023/05/10 02:02:05;;;;;;;5.22;2.53;;;13.60;99.90;;;12.76;100.00;96773.41;6153412;23;20364;-75
2023/05/10 02:04:35;;;;;;;10.38;4.10;;;13.60;99.90;;;12.78;100.00;96778.44;6153335;23;20437;-75
2023/05/10 02:07:01;;;;;;;5.68;2.92;;;13.60;99.90;;;12.76;100.00;96778.72;6151933;23;20750;-75
2023/05/10 02:09:30;;;;;;;5.93;3.00;;;13.60;99.90;;;12.76;100.00;96777.94;6151754;23;20371;-75
2023/05/10 02:11:59;;;;;;;5.70;3.17;;;13.60;99.90;;;12.70;100.00;96781.72;6153338;23;20370;-75
2023/05/10 02:14:26;;;;;;;8.45;3.00;;;13.60;99.90;;;12.70;100.00;96777.19;6153435;23;20363;-75
2023/05/10 02:16:55;;;;;;;9.15;2.78;;;13.50;99.90;;;12.65;100.00;96777.22;6153381;23;20359;-76
2023/05/10 02:19:23;;;;;;;8.20;2.97;;;13.50;99.90;;;12.58;100.00;96775.94;6153107;23;20386;-76
2023/05/10 02:21:51;;;;;;;8.60;3.10;;;13.50;99.90;;;12.61;100.00;96784.16;6153213;23;20707;-75
2023/05/10 02:24:18;;;;;;;14.30;3.60;;;13.50;99.90;;;12.56;100.00;96778.88;6153447;23;20371;-76
2023/05/10 02:26:47;;;;;;;8.43;3.20;;;13.40;99.90;;;12.58;100.00;96786.56;6153315;23;20389;-75
2023/05/10 02:29:16;;;;;;;13.57;3.25;;;13.40;99.90;;;12.53;100.00;96790.06;6153519;23;20363;-76
2023/05/10 02:31:43;;;;;;;9.50;3.20;;;13.40;99.90;;;12.51;100.00;96797.50;6152932;23;20395;-76
2023/05/10 02:34:11;;;;;;;10.40;3.38;;;13.30;99.90;;;12.46;100.00;96794.91;6153292;23;20382;-75
2023/05/10 02:36:39;;;;;;;10.60;3.22;;;13.30;99.90;;;12.39;100.00;96789.91;6153277;23;20415;-76
2023/05/10 02:39:09;;;;;;;5.63;2.70;;;13.30;99.90;;;12.41;100.00;96802.88;6152993;23;20858;-75
2023/05/10 02:41:37;;;;;;;11.65;3.40;;;13.30;99.90;;;12.47;100.00;96806.31;6152998;23;20371;-75
2023/05/10 02:44:06;;;;;;;8.77;3.33;;;13.30;99.90;;;12.56;100.00;96810.75;6153520;23;20366;-76
2023/05/10 02:46:32;;;;;;;6.95;2.90;;;13.40;99.90;;;12.46;100.00;96813.50;6153157;23;20362;-75
2023/05/10 02:48:58;;;;;;;12.53;3.80;;;13.30;99.90;;;12.47;100.00;96815.06;6153094;23;20367;-76
2023/05/10 02:51:28;;;;;;;12.20;3.58;;;13.40;99.90;;;12.49;100.00;96807.59;6152825;23;20431;-76
2023/05/10 02:53:55;;;;;;;15.07;3.67;;;13.30;99.90;;;12.52;100.00;96808.94;6153032;23;20551;-76
2023/05/10 02:56:28;;;;;;;15.43;4.33;;;13.40;99.90;;;12.51;100.00;96816.09;6153040;23;20421;-76
2023/05/10 02:58:55;;;;;;;13.07;3.85;;;13.40;99.90;;;12.50;100.00;96808.41;6151050;23;20379;-75
2023/05/10 03:01:21;;;;;;;9.95;3.50;;;13.40;99.90;;;12.44;100.00;96809.50;6152565;23;20370;-76
2023/05/10 03:03:47;;;;;;;15.50;4.50;;;13.30;99.90;;;12.42;100.00;96807.13;6152909;23;20387;-76
2023/05/10 03:06:13;;;;;;;12.30;4.10;;;13.30;99.90;;;12.43;100.00;96808.72;6152985;23;20371;-75
2023/05/10 03:08:39;;;;;;;15.00;4.10;;;13.30;99.90;;;12.44;100.00;96812.16;6152972;23;20699;-78
2023/05/10 03:11:42;;;;;;;10.75;4.07;;;13.30;99.90;;;12.50;100.00;96811.06;6152707;23;20866;-77
2023/05/10 03:14:34;;;;;;;19.63;5.53;;;13.40;99.90;;;12.44;100.00;96810.31;6152305;23;20415;-77
2023/05/10 03:17:06;;;;;;;12.60;4.80;;;13.30;99.90;;;12.48;100.00;96819.28;6152909;23;20386;-77
2023/05/10 03:19:43;;;;;;;14.38;5.43;;;13.30;99.90;;;12.50;100.00;96824.31;6175869;23;20877;-77
2023/05/10 03:22:13;;;;;;;13.00;4.88;;;13.30;99.90;;;12.45;100.00;96827.03;6175955;23;20461;-77
2023/05/10 03:24:41;;;;;;;14.23;5.25;;;13.20;99.90;;;12.44;100.00;96826.25;6153034;23;20424;-77
2023/05/10 03:27:09;;;;;;;20.00;5.40;;;13.30;99.90;;;12.51;100.00;96817.97;6152792;23;20367;-77
2023/05/10 03:29:36;;;;;;;15.30;5.70;;;13.30;99.90;;;12.48;100.00;96819.28;6152648;23;20364;-77
2023/05/10 03:32:02;;;;;;;14.65;5.40;;;13.30;99.90;;;12.47;100.00;96816.94;6152760;23;20366;-77
2023/05/10 03:34:31;;;;;;;14.25;5.10;;;13.30;99.90;;;12.45;100.00;96824.38;6152787;23;20839;-77
2023/05/10 03:36:57;;;;;;;18.05;5.05;;;13.30;99.90;;;12.44;100.00;96822.78;6153246;23;20405;-77
2023/05/10 03:39:24;;;;;;;19.67;6.00;;;13.30;99.90;;;12.51;100.00;96833.88;6152519;23;20786;-77
2023/05/10 03:41:50;;;;;;;14.68;6.38;;;13.40;99.90;;;12.53;100.00;96826.44;6175828;23;20878;-76
2023/05/10 03:44:18;;;;;;;15.95;6.75;;;13.40;99.90;;;12.52;100.00;96836.25;6152745;23;20402;-76
2023/05/10 03:46:44;;;;;;;14.40;5.57;;;13.30;99.90;;;12.47;100.00;96833.66;6152836;23;20892;-75
2023/05/10 03:49:09;;;;;;;15.45;6.10;;;13.30;99.90;;;12.42;100.00;96838.97;6152812;23;20374;-75
2023/05/10 03:51:35;;;;;;;17.42;6.88;;;13.20;99.90;;;12.43;100.00;96845.09;6154439;23;20710;-75
2023/05/10 03:54:01;;;;;;;15.85;7.45;;;13.20;99.90;;;12.44;100.00;96836.84;6154767;23;20675;-76
2023/05/10 03:56:27;;;;;;;20.35;7.75;;;13.20;99.90;;;12.40;100.00;96835.84;6154684;23;20371;-76
2023/05/10 03:58:53;;;;;;;22.85;7.80;;;13.20;99.90;;;12.33;100.00;96836.13;6154536;23;20383;-75
2023/05/10 04:01:20;;;;;;;22.98;7.30;;;13.20;99.90;;;12.30;100.00;96836.69;6154373;23;20422;-75
2023/05/10 04:03:46;;;;;;;17.40;7.20;;;13.20;99.90;;;12.34;100.00;96840.34;6154733;23;20371;-75
2023/05/10 04:06:12;;;;;;;17.57;6.97;;;13.10;99.90;;;12.28;100.00;96830.06;6154609;23;20367;-76
2023/05/10 04:08:38;;;;;;;14.38;7.00;;;13.10;99.90;;;12.28;100.00;96838.81;6154666;23;20362;-76
2023/05/10 04:11:07;;;;;;;12.40;6.53;;;13.10;99.90;;;12.23;100.00;96836.19;6152727;23;20829;-76
2023/05/10 04:13:33;;;;;;;12.32;5.63;;;13.10;99.90;;;12.24;100.00;96839.66;6154806;23;20454;-76
2023/05/10 04:15:59;;;;;;;15.88;7.32;;;13.10;99.90;;;12.32;100.00;96839.06;6154938;23;20840;-76
2023/05/10 04:18:26;;;;;;;17.83;7.47;;;13.10;99.90;;;12.27;100.00;96841.72;6154927;23;20371;-76
2023/05/10 04:20:52;;;;;;;17.57;5.73;;;13.10;99.90;;;12.26;100.00;96838.28;6154403;23;20421;-76
2023/05/10 04:23:18;;;;;;;15.38;6.43;;;13.10;99.90;;;12.27;100.00;96842.53;6154715;23;20375;-76
2023/05/10 04:25:44;;;;;;;17.83;7.40;;;13.10;99.90;;;12.33;100.00;96848.59;6154203;23;20819;-76
2023/05/10 04:28:10;;;;;;;20.27;7.20;;;13.20;99.90;;;12.34;100.00;96844.88;6152728;23;20870;-76
2023/05/10 04:30:36;;;;;;;19.75;7.88;;;13.20;99.90;;;12.41;100.00;96848.00;6154539;23;20378;-76
2023/05/10 04:33:02;;;;;;;25.00;7.18;;;13.20;99.90;;;12.37;100.00;96839.81;6154790;23;20371;-76
2023/05/10 04:35:29;;;;;;;24.60;7.88;;;13.20;99.90;;;12.39;100.00;96842.22;6154951;23;20997;-76
2023/05/10 04:37:55;;;;;;;17.20;7.55;;;13.20;99.90;;;12.33;100.00;96841.41;6154882;23;20371;-76
2023/05/10 04:40:21;;;;;;;19.13;8.60;;;13.20;99.90;;;12.34;100.00;96843.00;6154265;23;20409;-76
2023/05/10 04:42:47;;;;;;;22.55;8.00;;;13.20;99.90;;;12.36;100.00;96842.75;6156425;23;20371;-78
2023/05/10 04:45:16;;;;;;;18.85;7.45;;;13.20;99.90;;;12.39;100.00;96848.31;6156618;23;20398;-77
2023/05/10 04:47:42;;;;;;;19.00;7.10;;;13.20;99.90;;;12.36;100.00;96856.81;6156652;23;20377;-77
2023/05/10 04:50:08;;;;;;;13.70;6.27;;;13.20;99.90;;;12.40;100.00;96851.75;6156218;23;20422;-77
2023/05/10 04:52:36;;;;;;;18.75;6.47;;;13.20;99.90;;;12.43;100.00;96848.53;6155904;23;20371;-76
2023/05/10 04:55:02;;;;;;;20.00;7.80;;;13.30;99.90;;;12.49;100.00;96857.25;6154666;23;20375;-76
2023/05/10 04:57:28;;;;;;;20.70;7.67;;;13.30;99.90;;;12.44;100.00;96858.09;6154909;23;20371;-76
2023/05/10 04:59:54;;;;;;;20.00;6.95;;;13.20;99.90;;;12.46;100.00;96855.97;6154072;23;20390;-76
2023/05/10 05:02:20;;;;;;;22.25;7.70;;;13.30;99.90;;;12.48;100.00;96864.41;6154361;23;20781;-77
2023/05/10 05:04:45;;;;;;;19.05;7.22;;;13.30;99.90;;;12.52;100.00;96865.47;6154303;23;20375;-76
2023/05/10 05:07:11;;;;;;;18.23;7.18;;;13.30;99.90;;;12.57;100.00;96862.78;6154498;23;20367;-76
2023/05/10 05:09:39;;;;;;;18.75;6.25;;;13.40;99.90;;;12.63;100.00;96868.88;6153317;23;20368;-76
2023/05/10 05:12:05;;;;;;;16.70;6.30;;;13.40;99.90;;;12.68;100.00;96861.66;6153804;23;20702;-76
2023/05/10 05:14:31;;;;;;;16.00;6.40;;;13.50;99.90;;;12.74;100.00;96871.16;6154387;23;20374;-76
2023/05/10 05:16:57;;;;;;;16.27;5.68;;;13.60;99.90;;;12.81;100.00;96876.16;6153996;23;20374;-76
2023/05/10 05:19:23;;;;;;;18.77;6.30;;;13.60;99.90;;;12.86;100.00;96867.34;6153649;23;20383;-77
2023/05/10 05:21:49;;;;;;;19.42;6.70;;;13.60;99.90;;;12.91;100.00;96881.41;6153726;23;20696;-76
2023/05/10 05:24:15;;;;;;;17.35;7.30;;;13.70;99.90;;;12.94;100.00;96874.72;6153804;23;20489;-77
2023/05/10 05:26:42;;;;;;;12.70;5.70;;;13.70;99.90;;;12.95;100.00;96874.44;6153783;23;20410;-75
2023/05/10 05:29:08;;;;;;;11.43;5.60;;;13.70;99.90;;;12.99;100.00;96880.00;6153815;23;20811;-75
2023/05/10 05:31:34;;;;;;;19.02;7.57;;;13.70;99.90;;;13.01;100.00;96880.50;6153200;23;20378;-75
2023/05/10 05:34:00;;;;;;;15.00;6.50;;;13.80;99.90;;;13.00;100.00;96882.38;6153477;23;20767;-77
2023/05/10 05:36:26;;;;;;;17.55;6.72;;;13.80;99.90;;;13.01;100.00;96877.84;6153806;23;20375;-76
2023/05/10 05:38:52;;;;;;;13.50;5.97;;;13.80;99.90;;;13.02;100.00;96884.75;6153458;23;20459;-76
2023/05/10 05:41:17;;;;;;;19.23;6.78;;;13.80;99.90;;;13.02;100.00;96887.41;6153154;23;20457;-76
2023/05/10 05:43:44;;;;;;;15.10;6.28;;;13.80;99.90;;;13.02;100.00;96888.19;6153161;23;20374;-76
2023/05/10 05:46:10;;;;;;;17.70;7.30;;;13.80;99.90;;;13.06;100.00;96891.09;6152938;23;20367;-77
2023/05/10 05:48:36;;;;;;;16.57;6.77;;;13.80;99.90;;;13.05;100.00;96895.63;6153603;23;20449;-76
2023/05/10 05:51:02;;;;;;;15.83;7.20;;;13.80;99.90;;;13.08;100.00;96896.94;6153075;23;20371;-76
2023/05/10 05:53:28;;;;;;;13.23;6.30;;;13.80;99.90;;;13.10;100.00;96897.44;6153562;23;20363;-77
2023/05/10 05:55:57;;;;;;;16.48;6.53;;;13.80;99.90;;;13.10;100.00;96894.78;6153523;23;20691;-77
2023/05/10 05:58:23;;;;;;;14.55;6.13;;;13.90;99.90;;;13.16;100.00;96905.09;6153416;23;20375;-77
2023/05/10 06:00:51;;;;;;;13.15;6.18;;;13.90;99.90;;;13.21;100.00;96900.84;6153117;23;20371;-77
2023/05/10 06:03:17;;;;;;;18.83;6.90;;;14.00;99.90;;;13.25;100.00;96899.19;6153356;23;20404;-76
2023/05/10 06:05:44;;;;;;;11.82;5.90;;;14.00;99.90;;;13.27;100.00;96892.53;6153375;23;20383;-77
2023/05/10 06:08:10;;;;;;;18.83;6.80;;;14.00;99.90;;;13.30;100.00;96904.50;6153514;23;20378;-77
2023/05/10 06:10:36;;;;;;;14.02;5.90;;;14.00;99.90;;;13.35;100.00;96905.22;6153020;23;20455;-77
2023/05/10 06:13:02;;;;;;;17.17;7.05;;;14.10;99.90;;;13.36;100.00;96912.13;6153036;23;20406;-77
2023/05/10 06:15:28;;;;;;;18.05;7.70;;;14.10;99.90;;;13.36;100.00;96916.66;6153642;23;20450;-77
2023/05/10 06:17:55;;;;;;;17.13;7.53;;;14.10;99.90;;;13.32;100.00;96921.72;6153202;23;20734;-76
2023/05/10 06:20:21;;;;;;;12.27;6.35;;;14.10;99.90;;;13.30;100.00;96918.56;6153009;23;20532;-76
2023/05/10 06:22:47;;;;;;;18.27;7.72;;;14.10;99.90;;;13.28;100.00;96920.72;6153507;23;20453;-76
2023/05/10 06:25:14;;;;;;;17.88;7.28;;;14.00;99.90;;;13.27;100.00;96924.44;6151744;23;20383;-76
2023/05/10 06:27:40;;;;;;;18.20;7.78;;;14.00;99.90;;;13.24;100.00;96916.22;6153370;23;20382;-76
2023/05/10 06:30:08;;;;;;;16.80;6.78;;;14.00;99.90;;;13.18;100.00;96924.25;6152947;23;20690;-76
2023/05/10 06:32:34;;;;;;;16.27;7.45;;;13.90;99.90;;;13.18;100.00;96926.91;6153435;23;20417;-77
2023/05/10 06:35:01;;;;;;;20.05;8.30;;;13.90;99.90;;;13.16;100.00;96925.56;6153460;23;20371;-77
2023/05/10 06:37:27;;;;;;;25.73;8.73;;;13.90;99.90;;;13.17;100.00;96938.59;6153231;23;20399;-77
2023/05/10 06:39:53;;;;;;;16.97;7.57;;;13.90;99.90;;;13.17;100.00;96930.63;6153125;23;20418;-77
2023/05/10 06:42:19;;;;;;;19.37;8.03;;;13.90;99.90;;;13.14;100.00;96941.81;6153709;23;20430;-77
2023/05/10 06:44:45;;;;;;;13.77;7.20;;;13.90;99.90;;;13.01;100.00;96925.66;6153635;23;20367;-76
2023/05/10 06:47:10;;;;;;;16.07;7.60;;;13.70;99.90;;;13.01;100.00;96929.13;6153487;23;20402;-76
2023/05/10 06:49:37;;;;;;;17.38;7.82;;;13.80;99.90;;;13.01;100.00;96925.66;6152770;23;20819;-76
2023/05/10 06:52:05;;;;;;;16.25;7.65;;;13.80;99.90;;;13.03;100.00;96931.50;6151522;23;20885;-78
2023/05/10 06:54:31;;;;;;;21.00;8.57;;;13.80;99.90;;;13.01;100.00;96928.31;6153085;23;20386;-77
2023/05/10 06:56:57;;;;;;;16.25;7.50;;;13.80;99.90;;;13.08;100.00;96931.47;6153354;23;20403;-78
2023/05/10 06:59:23;;;;;;;18.35;8.32;;;13.80;99.90;;;13.12;100.00;96927.97;6153302;23;20458;-77
2023/05/10 07:01:49;;;;;;;23.92;8.98;;;13.90;99.90;;;13.21;100.00;96927.41;6153680;23;20450;-77
2023/05/10 07:04:15;;;;;;;17.13;7.88;;;14.00;99.90;;;13.31;100.00;96936.06;6154155;23;20465;-78
2023/05/10 07:06:41;;;;;;;26.58;9.00;;;14.00;99.90;;;13.40;100.00;96930.97;6151947;23;20389;-77
2023/05/10 07:09:08;;;;;;;18.88;8.32;;;14.10;99.90;;;13.49;100.00;96940.72;6154236;23;20874;-77
2023/05/10 07:11:34;;;;;;;15.52;7.35;;;14.30;99.90;;;13.58;100.00;96932.94;6153372;23;20371;-78
2023/05/10 07:14:00;;;;;;;20.03;8.77;;;14.30;99.90;;;13.55;100.00;96930.81;6153212;23;20981;-77
2023/05/10 07:16:26;;;;;;;22.83;8.40;;;14.30;99.90;;;13.63;100.00;96934.72;6153805;23;20371;-77
2023/05/10 07:18:53;;;;;;;21.73;8.63;;;14.40;99.90;;;13.55;100.00;96939.59;6152898;23;20475;-77
2023/05/10 07:21:19;;;;;;;15.45;6.78;;;14.30;99.90;;;13.54;100.00;96934.53;6153288;23;20395;-77
2023/05/10 07:23:45;;;;;;;19.27;7.90;;;14.20;99.90;;;13.71;100.00;96928.81;6152856;23;20422;-76
2023/05/10 07:26:12;;;;;;;14.48;7.18;;;14.40;99.90;;;13.71;100.00;96932.25;6151506;23;20383;-77
2023/05/10 07:28:38;;;;;;;19.20;7.28;;;14.40;99.90;;;13.77;100.00;96941.75;6153281;23;20370;-76
2023/05/10 07:31:05;;;;;;;14.25;6.38;;;14.40;99.90;;;13.84;100.00;96939.56;6152985;23;20381;-76
2023/05/10 07:33:30;;;;;;;13.48;5.65;;;14.50;99.90;;;13.95;100.00;96940.25;6153933;23;20455;-76
2023/05/10 07:35:57;;;;;;;19.80;7.37;;;14.70;99.90;;;13.95;100.00;96938.38;6151833;23;20396;-76
2023/05/10 07:38:23;;;;;;;10.07;5.45;;;14.70;99.90;;;14.06;100.00;96939.06;6152907;23;20371;-77
2023/05/10 07:40:49;;;;;;;12.98;6.32;;;14.70;99.90;;;14.03;100.00;96944.97;6151025;23;20418;-76
2023/05/10 07:43:16;;;;;;;12.52;5.30;;;14.70;99.90;;;14.17;100.00;96942.41;6151135;23;20378;-76
2023/05/10 07:45:42;;;;;;;11.63;6.07;;;14.80;99.90;;;14.33;100.00;96949.91;6153849;23;20446;-74
2023/05/10 07:48:08;;;;;;;8.07;4.60;;;15.00;99.90;;;14.39;100.00;96948.00;6153143;23;20370;-74
2023/05/10 07:50:34;;;;;;;10.43;4.47;;;15.10;99.90;;;14.29;100.00;96956.09;6152657;23;20367;-74
2023/05/10 07:53:00;;;;;;;10.98;4.22;;;14.90;99.90;;;14.17;100.00;96955.72;6153115;23;20457;-75
2023/05/10 07:55:26;;;;;;;11.00;4.07;;;14.80;99.90;;;14.16;100.00;96951.47;6152823;23;20405;-75
2023/05/10 07:57:52;;;;;;;8.45;3.80;;;14.80;99.90;;;14.18;100.00;96951.97;6153308;23;20386;-74
2023/05/10 08:00:20;;;;;;;8.68;4.05;;;14.80;99.90;;;14.16;100.00;96959.44;6152914;23;20383;-75
2023/05/10 08:02:47;;;;;;;9.60;4.40;;;14.80;99.90;;;14.24;100.00;96961.47;6153182;23;20395;-74
2023/05/10 08:05:13;;;;;;;6.65;3.38;;;14.90;99.90;;;14.24;100.00;96964.16;6153086;23;20379;-75
2023/05/10 08:07:39;;;;;;;7.85;3.90;;;14.90;99.90;;;14.16;100.00;96960.25;6151609;23;20414;-75
2023/05/10 08:10:09;;;;;;;6.97;3.70;;;14.90;99.90;;;14.31;100.00;96959.25;6152857;23;20847;-75
2023/05/10 08:12:35;;;;;;;6.43;3.65;;;15.00;99.90;;;14.33;100.00;96963.22;6153205;23;20363;-75
2023/05/10 08:15:01;;;;;;;7.68;3.30;;;15.00;99.90;;;14.28;100.00;96963.28;6152557;23;20378;-75
2023/05/10 08:17:29;;;;;;;7.25;3.33;;;14.90;99.90;;;14.31;100.00;96967.25;6151980;23;20367;-75
2023/05/10 08:19:55;;;;;;;8.50;3.40;;;14.90;99.90;;;14.24;100.00;96959.63;6150972;23;20461;-74
2023/05/10 08:22:21;;;;;;;8.52;3.70;;;14.90;99.90;;;14.16;100.00;96962.09;6152227;23;20449;-75
2023/05/10 08:24:47;;;;;;;6.30;3.28;;;14.80;99.90;;;14.22;100.00;96967.09;6152449;23;20367;-74
2023/05/10 08:27:12;;;;;;;7.07;3.70;;;14.90;99.90;;;14.25;100.00;96971.06;6152480;23;20456;-75
2023/05/10 08:29:38;;;;;;;7.47;3.30;;;14.90;99.90;;;14.37;100.00;96975.97;6152435;23;20909;-75
2023/05/10 08:32:05;;;;;;;4.67;2.97;;;15.00;99.90;;;14.44;100.00;96968.44;6152375;23;20371;-75
2023/05/10 08:34:33;;;;;;;8.77;3.55;;;15.10;99.90;;;14.51;100.00;96972.34;6152409;23;20716;-75
2023/05/10 08:36:59;;;;;;;5.55;3.28;;;15.20;99.90;;;14.61;100.00;96974.88;6153985;23;20700;-74
2023/05/10 08:39:25;;;;;;;7.68;2.90;;;15.30;99.90;;;14.70;100.00;96965.19;6154366;23;20410;-75
2023/05/10 08:41:53;;;;;;;4.80;2.88;;;15.40;99.90;;;14.77;100.00;96978.16;6153740;23;20371;-74
2023/05/10 08:44:20;;;;;;;6.90;2.83;;;15.40;99.90;;;14.81;100.00;96971.16;6151808;23;20444;-75
2023/05/10 08:46:49;;;;;;;6.32;2.55;;;15.50;99.90;;;15.05;100.00;96979.06;6154160;23;20366;-75
2023/05/10 08:49:19;;;;;;;7.97;2.70;;;15.60;99.90;;;15.00;100.00;96974.63;6153907;23;20386;-75
2023/05/10 08:51:52;;;;;;;4.23;2.50;;;15.70;99.90;;;15.02;100.00;96977.78;6154382;23;20363;-75
2023/05/10 08:54:18;;;;;;;5.63;2.42;;;15.70;99.90;;;15.10;100.00;96985.16;6154270;23;20375;-75
2023/05/10 08:56:44;;;;;;;4.10;2.30;;;15.70;99.90;;;15.09;100.00;96978.22;6154072;23;20870;-75
2023/05/10 08:59:12;;;;;;;5.00;2.33;;;15.80;99.90;;;15.04;100.00;96980.94;6152995;23;20417;-75
2023/05/10 09:01:38;;;;;;;2.72;2.00;;;15.80;99.90;;;15.08;100.00;96981.97;6153673;23;20371;-76
2023/05/10 09:04:04;;;;;;;7.60;2.30;;;15.60;99.90;;;15.00;100.00;96987.94;6153687;23;20378;-75
2023/05/10 09:06:32;;;;;;;4.63;1.88;;;15.70;99.90;;;14.87;100.00;96991.34;6153769;23;20744;-76
2023/05/10 09:09:01;;;;;;;4.95;1.90;;;15.50;99.90;;;14.92;100.00;96990.47;6154230;23;20363;-75
2023/05/10 09:11:28;;;;;;;4.13;1.80;;;15.50;99.90;;;14.93;100.00;96998.19;6153893;23;20379;-75
2023/05/10 09:13:55;;;;;;;3.65;1.55;;;15.60;99.90;;;14.51;100.00;97000.88;6154044;23;20371;-76
2023/05/10 09:16:21;;;;;;;2.33;1.42;;;15.10;99.90;;;14.40;100.00;97004.72;6154001;23;20379;-75
2023/05/10 09:18:47;;;;;;;3.00;1.70;;;15.00;99.90;;;14.39;100.00;97001.28;6154532;23;20383;-75
2023/05/10 09:21:14;;;;;;;2.20;1.70;;;15.00;99.90;;;14.39;100.00;97005.78;6153201;23;20372;-76
2023/05/10 09:23:43;;;;;;;3.20;1.65;;;15.00;99.90;;;14.47;100.00;97008.63;6153774;23;20403;-75
2023/05/10 09:26:10;;;;;;;2.60;1.60;;;15.10;99.90;;;14.43;100.00;97012.16;6153032;23;20839;-75
2023/05/10 09:28:51;;;;;;;4.88;1.80;;;15.10;99.90;;;14.34;100.00;96995.97;6153738;23;20397;-76
2023/05/10 09:31:17;;;;;;;3.20;1.38;;;15.00;99.90;;;14.50;100.00;97010.75;6152837;23;20389;-76
2023/05/10 09:33:45;;;;;;;4.40;1.60;;;15.10;99.90;;;14.55;100.00;97013.31;6154136;23;20777;-75
2023/05/10 09:36:13;;;;;;;2.20;1.30;;;15.20;99.90;;;14.88;100.00;97006.25;6154150;23;20394;-76
2023/05/10 09:38:47;;;;;;;4.47;1.40;;;15.50;99.90;;;14.99;100.00;97001.56;6154156;23;20377;-76
2023/05/10 09:41:20;;;;;;;3.83;1.30;;;15.60;99.90;;;15.31;100.00;97000.81;6154007;23;20719;-75
2023/05/10 09:43:46;;;;;;;1.42;1.20;;;15.90;99.90;;;14.97;100.00;97009.03;6154314;23;20382;-77
2023/05/10 09:46:12;;;;;;;5.65;1.35;;;15.60;99.90;;;15.18;100.00;97002.34;6154434;23;20375;-77
2023/05/10 09:48:43;;;;;;;1.20;1.10;;;15.70;99.90;;;15.17;100.00;97006.09;6155415;23;20367;-78
2023/05/10 09:51:10;;;;;;;5.07;1.00;;;15.70;99.90;;;15.29;100.00;97002.97;6155108;23;20374;-77
2023/05/10 09:53:36;;;;;;;1.33;1.05;;;15.80;99.90;;;15.51;100.00;97008.50;6154118;23;20399;-76
2023/05/10 09:56:03;;;;;;;1.80;1.25;;;16.10;99.90;;;15.71;100.00;97002.84;6154134;23;20367;-77
2023/05/10 09:58:31;;;;;;;3.90;1.20;;;16.30;99.90;;;15.43;100.00;97001.16;6154016;23;20380;-76
2023/05/10 10:00:57;;;;;;;1.10;1.00;;;16.10;99.90;;;15.75;100.00;97008.41;6153325;23;20379;-76
2023/05/10 10:03:24;;;;;;;2.45;1.08;;;16.30;99.90;;;15.80;100.00;97005.63;6153810;23;20381;-76
2023/05/10 10:05:51;;;;;;;1.65;1.00;;;16.40;99.90;;;15.99;100.00;97000.25;6153262;23;20371;-76
2023/05/10 10:08:17;;;;;;;1.27;1.10;;;16.60;99.90;;;16.27;100.00;97007.97;6152333;23;20433;-75
2023/05/10 10:10:46;;;;;;;1.70;1.03;;;16.80;99.90;;;16.36;100.00;97004.63;6151717;23;20447;-76
2023/05/10 10:13:14;;;;;;;2.58;1.08;;;16.90;99.90;;;16.56;100.00;97012.22;6152060;23;20371;-75